createdAt,value
2022-08-18T00:01:14.773Z,2.60
2022-08-18T00:03:56.860Z,2.30
2022-08-18T00:06:32.389Z,3.03
2022-08-18T00:09:01.917Z,4.75
2022-08-18T00:11:41.588Z,6.32
2022-08-18T00:14:21.235Z,5.63
2022-08-18T00:16:52.175Z,5.32
2022-08-18T00:19:20.087Z,3.13
2022-08-18T00:22:14.547Z,4.53
2022-08-18T00:24:48.521Z,2.95
2022-08-18T00:27:21.663Z,3.45
2022-08-18T00:29:51.620Z,2.85
2022-08-18T00:32:23.260Z,5.80
2022-08-18T00:34:51.871Z,2.84
2022-08-18T00:37:21.349Z,5.97
2022-08-18T00:39:51.829Z,6.72
2022-08-18T00:42:27.628Z,5.22
2022-08-18T00:44:59.734Z,4.78
2022-08-18T00:47:41.091Z,7.15
2022-08-18T00:50:15.956Z,6.88
2022-08-18T00:52:50.964Z,9.88
2022-08-18T00:55:20.357Z,6.50
2022-08-18T00:57:51.603Z,4.50
2022-08-18T01:00:19.636Z,4.85
2022-08-18T01:02:52.582Z,5.93
2022-08-18T01:05:25.659Z,7.15
2022-08-18T01:07:55.038Z,6.53
2022-08-18T01:10:25.135Z,5.10
2022-08-18T01:12:55.550Z,6.05
2022-08-18T01:15:28.391Z,4.25
2022-08-18T01:18:18.028Z,5.30
2022-08-18T01:21:11.378Z,4.85
2022-08-18T01:23:41.367Z,3.33
2022-08-18T01:26:09.348Z,3.50
2022-08-18T01:28:41.312Z,6.15
2022-08-18T01:31:11.201Z,7.38
2022-08-18T01:33:42.272Z,4.80
2022-08-18T01:36:14.421Z,10.57
2022-08-18T01:38:44.386Z,8.48
2022-08-18T01:41:28.893Z,6.70
2022-08-18T01:43:59.263Z,6.40
2022-08-18T01:46:27.898Z,8.27
2022-08-18T01:49:01.401Z,7.45
2022-08-18T01:51:40.084Z,7.13
2022-08-18T01:54:12.965Z,9.35
2022-08-18T01:56:42.207Z,9.93
2022-08-18T01:59:14.389Z,11.85
2022-08-18T02:01:50.404Z,9.65
2022-08-18T02:04:40.583Z,8.68
2022-08-18T02:07:12.667Z,11.07
2022-08-18T02:09:43.920Z,12.25
2022-08-18T02:12:12.120Z,13.77
2022-08-18T02:14:40.155Z,16.52
2022-08-18T02:17:11.088Z,13.85
2022-08-18T02:19:41.147Z,11.65
2022-08-18T02:22:11.143Z,12.35
2022-08-18T02:24:40.977Z,14.65
2022-08-18T02:27:10.969Z,15.85
2022-08-18T02:29:39.379Z,14.50
2022-08-18T02:32:08.715Z,18.67
2022-08-18T02:34:36.777Z,17.83
2022-08-18T02:37:05.027Z,16.67
2022-08-18T02:39:35.212Z,15.90
2022-08-18T02:42:05.282Z,17.20
2022-08-18T02:44:33.543Z,14.30
2022-08-18T02:47:01.712Z,25.50
2022-08-18T02:49:29.589Z,17.17
2022-08-18T02:51:57.569Z,12.50
2022-08-18T02:54:27.136Z,15.50
2022-08-18T02:56:57.084Z,13.93
2022-08-18T02:59:28.485Z,17.50
2022-08-18T03:01:59.941Z,18.17
2022-08-18T03:04:32.567Z,17.00
2022-08-18T03:07:06.748Z,20.23
2022-08-18T03:09:36.067Z,14.35
2022-08-18T03:12:07.149Z,16.90
2022-08-18T03:14:37.211Z,18.20
2022-08-18T03:17:06.306Z,16.30
2022-08-18T03:19:34.494Z,17.73
2022-08-18T03:22:03.710Z,19.92
2022-08-18T03:24:33.094Z,19.85
2022-08-18T03:27:04.401Z,17.52
2022-08-18T03:29:33.086Z,23.83
2022-08-18T03:32:03.434Z,15.63
2022-08-18T03:34:32.247Z,17.50
2022-08-18T03:37:00.984Z,17.48
2022-08-18T03:39:29.740Z,13.80
2022-08-18T03:42:01.718Z,12.23
2022-08-18T03:44:32.309Z,13.45
2022-08-18T03:47:02.742Z,12.40
2022-08-18T03:49:33.646Z,12.00
2022-08-18T03:52:02.523Z,12.82
2022-08-18T03:54:32.046Z,13.13
2022-08-18T03:57:00.553Z,15.15
2022-08-18T03:59:31.776Z,11.45
2022-08-18T04:02:00.379Z,11.38
2022-08-18T04:04:29.892Z,12.90
2022-08-18T04:07:04.550Z,11.40
2022-08-18T04:09:33.976Z,16.17
2022-08-18T04:12:15.286Z,13.95
2022-08-18T04:14:47.905Z,12.18
2022-08-18T04:17:16.235Z,18.23
2022-08-18T04:19:44.229Z,13.10
2022-08-18T04:22:18.181Z,11.70
2022-08-18T04:24:47.176Z,14.25
2022-08-18T04:27:17.892Z,12.50
2022-08-18T04:29:48.044Z,15.25
2022-08-18T04:32:16.073Z,12.50
2022-08-18T04:34:44.418Z,14.85
2022-08-18T04:37:17.225Z,11.95
2022-08-18T04:39:46.011Z,13.40
2022-08-18T04:42:14.102Z,13.70
2022-08-18T04:44:42.567Z,16.77
2022-08-18T04:47:11.138Z,16.17
2022-08-18T04:49:39.066Z,12.68
2022-08-18T04:52:40.141Z,13.55
2022-08-18T04:55:11.523Z,13.10
2022-08-18T04:57:40.222Z,12.85
2022-08-18T05:00:11.897Z,14.93
2022-08-18T05:02:39.800Z,12.40
2022-08-18T05:05:11.078Z,16.20
2022-08-18T05:07:45.729Z,12.80
2022-08-18T05:10:17.469Z,11.93
2022-08-18T05:12:48.344Z,8.60
2022-08-18T05:15:17.656Z,10.85
2022-08-18T05:17:47.650Z,9.25
2022-08-18T05:20:18.750Z,14.60
2022-08-18T05:22:47.807Z,15.65
2022-08-18T05:25:17.406Z,17.02
2022-08-18T05:27:45.475Z,14.40
2022-08-18T05:30:14.494Z,15.43
2022-08-18T05:32:48.671Z,13.57
2022-08-18T05:35:24.388Z,13.88
2022-08-18T05:38:16.069Z,17.38
2022-08-18T05:40:47.656Z,16.13
2022-08-18T05:43:17.507Z,18.90
2022-08-18T05:45:45.429Z,13.30
2022-08-18T05:48:14.932Z,17.33
2022-08-18T05:50:43.337Z,18.77
2022-08-18T05:53:15.171Z,15.18
2022-08-18T05:56:12.197Z,18.08
2022-08-18T05:58:44.095Z,16.65
2022-08-18T06:01:17.046Z,14.80
2022-08-18T06:03:50.893Z,18.00
2022-08-18T06:06:21.404Z,14.70
2022-08-18T06:08:55.058Z,14.90
2022-08-18T06:11:25.742Z,18.42
2022-08-18T06:13:59.122Z,14.80
2022-08-18T06:16:40.153Z,17.20
2022-08-18T06:19:23.857Z,18.73
2022-08-18T06:22:01.572Z,14.90
2022-08-18T06:24:37.101Z,21.35
2022-08-18T06:27:15.141Z,18.35
2022-08-18T06:29:58.814Z,19.30
2022-08-18T06:32:41.644Z,23.25
2022-08-18T06:35:19.060Z,19.45
2022-08-18T06:38:15.661Z,18.50
2022-08-18T06:40:43.521Z,21.98
2022-08-18T06:43:17.081Z,27.20
2022-08-18T06:45:51.922Z,23.17
2022-08-18T06:48:27.099Z,26.15
2022-08-18T06:51:00.358Z,24.73
2022-08-18T06:53:53.534Z,29.30
2022-08-18T06:56:26.213Z,30.27
2022-08-18T06:59:14.437Z,35.03
2022-08-18T07:01:43.077Z,32.20
2022-08-18T07:04:14.070Z,33.63
2022-08-18T07:06:41.945Z,38.28
2022-08-18T07:09:23.090Z,34.72
2022-08-18T07:12:04.120Z,34.90
2022-08-18T07:14:42.918Z,34.72
2022-08-18T07:17:13.307Z,33.00
2022-08-18T07:19:41.727Z,35.55
2022-08-18T07:22:18.015Z,39.67
2022-08-18T07:24:48.526Z,37.92
2022-08-18T07:27:18.951Z,33.50
2022-08-18T07:30:03.304Z,38.55
2022-08-18T07:32:36.242Z,35.72
2022-08-18T07:35:08.429Z,37.38
2022-08-18T07:37:44.231Z,27.40
2022-08-18T07:40:23.332Z,30.63
2022-08-18T07:43:01.428Z,30.67
2022-08-18T07:45:37.065Z,28.67
2022-08-18T07:48:34.667Z,26.52
2022-08-18T07:51:08.763Z,25.48
2022-08-18T07:53:54.812Z,30.13
2022-08-18T07:56:37.001Z,31.40
2022-08-18T07:59:13.458Z,32.47
2022-08-18T08:01:50.034Z,30.73
2022-08-18T08:04:33.462Z,25.52
2022-08-18T08:07:25.808Z,31.35
2022-08-18T08:10:02.791Z,35.42
2022-08-18T08:12:38.017Z,29.15
2022-08-18T08:15:18.328Z,37.42
2022-08-18T08:18:06.047Z,33.38
2022-08-18T08:20:40.981Z,37.78
2022-08-18T08:23:19.492Z,32.50
2022-08-18T08:26:01.628Z,33.90
2022-08-18T08:28:42.265Z,31.95
2022-08-18T08:34:11.973Z,38.03
2022-08-18T08:36:41.996Z,27.33
2022-08-18T08:39:15.362Z,28.92
2022-08-18T08:41:49.927Z,24.63
2022-08-18T08:44:24.830Z,26.67
2022-08-18T08:47:00.506Z,27.55
2022-08-18T08:49:38.983Z,26.10
2022-08-18T08:52:18.744Z,25.88
2022-08-18T08:54:53.560Z,29.85
2022-08-18T08:57:24.279Z,24.17
2022-08-18T08:59:53.451Z,20.52
2022-08-18T09:02:49.000Z,17.73
2022-08-18T09:05:23.132Z,23.30
2022-08-18T09:08:27.946Z,27.48
2022-08-18T09:11:18.938Z,27.85
2022-08-18T09:14:17.641Z,22.98
2022-08-18T09:16:56.891Z,25.17
2022-08-18T09:19:41.380Z,23.25
2022-08-18T09:22:19.620Z,28.70
2022-08-18T09:24:51.226Z,24.95
2022-08-18T09:27:48.498Z,23.55
2022-08-18T09:30:42.232Z,23.17
2022-08-18T09:33:24.800Z,25.20
2022-08-18T09:36:20.347Z,26.88
2022-08-18T09:39:11.656Z,18.80
2022-08-18T09:41:50.189Z,18.92
2022-08-18T09:44:51.225Z,18.77
2022-08-18T09:47:51.672Z,19.00
2022-08-18T09:50:55.642Z,19.60
2022-08-18T09:53:49.128Z,16.63
2022-08-18T09:56:57.422Z,15.77
2022-08-18T10:00:19.763Z,20.58
2022-08-18T10:03:33.770Z,14.75
2022-08-18T10:06:20.590Z,13.35
2022-08-18T10:09:14.719Z,16.73
2022-08-18T10:12:15.831Z,16.02
2022-08-18T10:18:34.021Z,15.45
2022-08-18T10:21:09.966Z,15.75
2022-08-18T10:24:02.843Z,16.80
2022-08-18T10:27:13.381Z,14.85
2022-08-18T10:30:05.012Z,16.38
2022-08-18T10:32:54.512Z,17.20
2022-08-18T10:35:59.141Z,19.23
2022-08-18T10:38:45.870Z,20.52
2022-08-18T10:41:25.164Z,16.27
2022-08-18T10:43:57.459Z,15.68
2022-08-18T10:46:32.887Z,18.52
2022-08-18T10:49:18.283Z,14.95
2022-08-18T10:52:10.647Z,12.50
2022-08-18T10:54:57.336Z,16.35
2022-08-18T10:57:33.928Z,12.18
2022-08-18T11:00:07.010Z,10.32
2022-08-18T11:03:42.514Z,17.38
2022-08-18T11:06:04.358Z,18.65
2022-08-18T11:08:45.115Z,9.05
2022-08-18T11:11:33.639Z,13.90
2022-08-18T11:14:16.937Z,10.23
2022-08-18T11:16:55.815Z,12.50
2022-08-18T11:19:25.917Z,9.23
2022-08-18T11:21:54.599Z,7.25
2022-08-18T11:24:25.562Z,8.25
2022-08-18T11:26:56.140Z,7.35
2022-08-18T11:29:28.682Z,6.00
2022-08-18T11:32:03.828Z,7.00
2022-08-18T11:34:41.339Z,5.93
2022-08-18T11:37:51.250Z,6.72
2022-08-18T11:43:29.847Z,6.55
2022-08-18T11:46:16.585Z,6.95
2022-08-18T11:48:53.113Z,8.40
2022-08-18T11:51:27.083Z,4.95
2022-08-18T11:53:59.755Z,7.53
2022-08-18T11:56:31.173Z,5.30
2022-08-18T11:59:01.734Z,5.68
2022-08-18T12:01:36.156Z,9.55
2022-08-18T12:04:21.918Z,6.40
2022-08-18T12:07:01.099Z,4.78
2022-08-18T12:12:33.289Z,4.93
2022-08-18T12:15:25.286Z,5.70
2022-08-18T12:17:58.007Z,3.35
2022-08-18T12:20:26.005Z,5.10
2022-08-18T12:22:58.166Z,5.53
2022-08-18T12:25:26.086Z,3.53
2022-08-18T12:27:54.389Z,5.70
2022-08-18T12:30:22.344Z,3.70
2022-08-18T12:35:41.871Z,3.95
2022-08-18T12:38:13.905Z,3.38
2022-08-18T12:40:42.908Z,4.70
2022-08-18T12:43:10.835Z,3.13
2022-08-18T12:45:39.249Z,3.40
2022-08-18T12:48:08.045Z,6.00
2022-08-18T12:50:50.277Z,3.97
2022-08-18T12:53:30.206Z,4.10
2022-08-18T12:56:08.559Z,3.20
2022-08-18T12:58:40.561Z,2.85
2022-08-18T13:01:08.667Z,3.00
2022-08-18T13:03:38.605Z,4.00
2022-08-18T13:06:11.492Z,3.47
2022-08-18T13:08:48.080Z,6.38
2022-08-18T13:11:21.687Z,4.60
2022-08-18T13:13:56.181Z,1.08
2022-08-18T13:16:30.546Z,4.43
2022-08-18T13:19:08.054Z,2.63
2022-08-18T13:21:41.074Z,2.58
2022-08-18T13:24:12.663Z,3.13
2022-08-18T13:26:45.861Z,3.70
2022-08-18T13:29:15.481Z,2.78
2022-08-18T13:31:55.378Z,2.28
2022-08-18T13:34:24.401Z,3.35
2022-08-18T13:36:52.400Z,2.55
2022-08-18T13:39:24.151Z,3.10
2022-08-18T13:41:54.831Z,6.75
2022-08-18T13:44:27.270Z,2.83
2022-08-18T13:46:56.105Z,1.42
2022-08-18T13:49:30.504Z,7.55
2022-08-18T13:52:00.345Z,1.50
2022-08-18T13:54:33.871Z,1.35
2022-08-18T13:57:03.695Z,3.22
2022-08-18T13:59:35.744Z,3.63
2022-08-18T14:02:08.617Z,3.47
2022-08-18T14:04:38.353Z,1.75
2022-08-18T14:07:10.516Z,1.48
2022-08-18T14:09:40.992Z,3.67
2022-08-18T14:12:22.404Z,4.35
2022-08-18T14:14:53.026Z,10.40
2022-08-18T14:17:22.522Z,4.22
2022-08-18T14:20:10.674Z,1.65
2022-08-18T14:23:08.187Z,5.32
2022-08-18T14:25:55.130Z,3.17
2022-08-18T14:28:24.956Z,5.88
2022-08-18T14:30:54.505Z,3.13
2022-08-18T14:33:34.345Z,3.70
2022-08-18T14:36:13.050Z,2.28
2022-08-18T14:38:41.523Z,4.78
2022-08-18T14:41:13.319Z,2.97
2022-08-18T14:43:51.616Z,3.17
2022-08-18T14:46:33.695Z,2.67
2022-08-18T14:49:03.977Z,3.45
2022-08-18T14:51:33.645Z,3.45
2022-08-18T14:54:02.127Z,6.72
2022-08-18T14:56:33.345Z,3.90
2022-08-18T14:59:07.755Z,3.30
2022-08-18T15:01:36.760Z,4.00
2022-08-18T15:04:19.307Z,3.05
2022-08-18T15:06:56.552Z,2.08
2022-08-18T15:09:27.285Z,2.63
2022-08-18T15:11:58.394Z,2.55
2022-08-18T15:14:32.936Z,3.38
2022-08-18T15:17:02.938Z,3.42
2022-08-18T15:19:59.254Z,5.38
2022-08-18T15:22:36.695Z,2.08
2022-08-18T15:25:24.084Z,2.42
2022-08-18T15:27:53.858Z,1.77
2022-08-18T15:30:22.966Z,2.38
2022-08-18T15:32:51.690Z,2.42
2022-08-18T15:35:20.425Z,3.35
2022-08-18T15:37:51.478Z,1.85
2022-08-18T15:40:35.489Z,1.35
2022-08-18T15:43:09.587Z,1.10
2022-08-18T15:45:43.415Z,4.78
2022-08-18T15:48:26.284Z,2.67
2022-08-18T15:50:54.424Z,2.17
2022-08-18T15:53:29.769Z,3.35
2022-08-18T15:55:58.461Z,2.42
2022-08-18T15:58:33.740Z,5.43
2022-08-18T16:01:02.770Z,3.42
2022-08-18T16:03:50.000Z,2.47
2022-08-18T16:06:27.746Z,3.45
2022-08-18T16:09:01.725Z,3.83
2022-08-18T16:11:30.026Z,1.70
2022-08-18T16:13:59.990Z,2.42
2022-08-18T16:16:35.511Z,5.05
2022-08-18T16:19:05.242Z,3.10
2022-08-18T16:21:33.358Z,2.38
2022-08-18T16:24:01.688Z,3.22
2022-08-18T16:26:30.192Z,2.30
2022-08-18T16:29:01.717Z,0.95
2022-08-18T16:31:30.528Z,1.42
2022-08-18T16:33:59.015Z,3.13
2022-08-18T16:36:27.386Z,6.13
2022-08-18T16:38:58.332Z,3.80
2022-08-18T16:41:27.623Z,1.60
2022-08-18T16:43:56.387Z,1.20
2022-08-18T16:46:28.306Z,1.70
2022-08-18T16:48:57.853Z,1.23
2022-08-18T16:51:28.547Z,4.30
2022-08-18T16:53:56.647Z,1.75
2022-08-18T16:56:27.167Z,2.60
2022-08-18T16:59:13.139Z,1.65
2022-08-18T17:02:00.822Z,0.38
2022-08-18T17:04:33.582Z,2.45
2022-08-18T17:07:02.623Z,1.90
2022-08-18T17:09:30.838Z,1.20
2022-08-18T17:11:58.713Z,0.75
2022-08-18T17:14:29.269Z,2.83
2022-08-18T17:17:00.273Z,3.53
2022-08-18T17:19:31.186Z,2.75
2022-08-18T17:21:59.081Z,2.13
2022-08-18T17:24:31.930Z,2.13
2022-08-18T17:27:26.016Z,1.95
2022-08-18T17:30:03.817Z,4.32
2022-08-18T17:32:41.499Z,2.22
2022-08-18T17:35:16.788Z,1.63
2022-08-18T17:37:54.557Z,2.75
2022-08-18T17:40:28.619Z,1.50
2022-08-18T17:42:58.547Z,1.42
2022-08-18T17:45:29.501Z,1.10
2022-08-18T17:48:05.464Z,3.58
2022-08-18T17:50:54.726Z,1.83
2022-08-18T17:53:23.312Z,5.10
2022-08-18T17:55:59.993Z,3.30
2022-08-18T17:58:37.986Z,2.72
2022-08-18T18:01:06.177Z,3.40
2022-08-18T18:03:35.353Z,2.20
2022-08-18T18:06:10.746Z,3.08
2022-08-18T18:08:57.896Z,2.20
2022-08-18T18:11:32.299Z,2.78
2022-08-18T18:14:01.591Z,2.72
2022-08-18T18:16:35.079Z,2.13
2022-08-18T18:19:07.689Z,4.63
2022-08-18T18:21:53.605Z,1.88
2022-08-18T18:24:31.621Z,2.58
2022-08-18T18:26:59.471Z,2.40
2022-08-18T18:29:34.485Z,1.45
2022-08-18T18:32:07.469Z,4.35
2022-08-18T18:34:39.744Z,2.47
2022-08-18T18:37:27.319Z,2.33
2022-08-18T18:39:58.060Z,3.15
2022-08-18T18:42:28.360Z,2.00
2022-08-18T18:44:58.153Z,1.85
2022-08-18T18:47:42.440Z,5.38
2022-08-18T18:50:18.453Z,1.92
2022-08-18T18:52:56.764Z,3.28
2022-08-18T18:55:26.896Z,2.72
2022-08-18T18:58:09.902Z,3.60
2022-08-18T19:00:53.642Z,5.22
2022-08-18T19:03:29.373Z,1.23
2022-08-18T19:06:13.328Z,1.38
2022-08-18T19:08:51.908Z,3.45
2022-08-18T19:11:29.030Z,2.92
2022-08-18T19:14:03.024Z,4.38
2022-08-18T19:16:40.957Z,3.28
2022-08-18T19:19:38.394Z,3.70
2022-08-18T19:22:11.443Z,6.75
2022-08-18T19:24:48.571Z,4.22
2022-08-18T19:27:25.223Z,4.68
2022-08-18T19:29:57.972Z,1.63
2022-08-18T19:32:33.650Z,1.73
2022-08-18T19:35:04.436Z,3.30
2022-08-18T19:37:53.859Z,2.50
2022-08-18T19:40:27.510Z,2.85
2022-08-18T19:43:01.820Z,5.65
2022-08-18T19:45:34.710Z,5.63
2022-08-18T19:48:08.409Z,2.55
2022-08-18T19:50:43.100Z,3.42
2022-08-18T19:53:44.292Z,9.02
2022-08-18T19:56:26.088Z,5.22
2022-08-18T19:59:18.042Z,3.60
2022-08-18T20:01:58.725Z,3.00
2022-08-18T20:04:39.186Z,9.00
2022-08-18T20:07:52.065Z,5.93
2022-08-18T20:10:45.045Z,3.72
2022-08-18T20:13:28.174Z,6.00
2022-08-18T20:16:13.322Z,4.32
2022-08-18T20:18:43.852Z,6.82
2022-08-18T20:21:47.486Z,5.20
2022-08-18T20:24:40.362Z,3.55
2022-08-18T20:27:32.874Z,9.93
2022-08-18T20:30:40.627Z,6.22
2022-08-18T20:33:19.497Z,3.33
2022-08-18T20:35:53.082Z,3.38
2022-08-18T20:38:33.897Z,2.15
2022-08-18T20:45:01.319Z,6.88
2022-08-18T20:47:55.949Z,9.10
2022-08-18T20:51:10.679Z,6.80
2022-08-18T20:54:01.510Z,4.32
2022-08-18T20:56:43.948Z,4.07
2022-08-18T20:59:20.736Z,1.05
2022-08-18T21:01:58.989Z,2.35
2022-08-18T21:04:42.918Z,1.85
2022-08-18T21:07:36.808Z,2.30
2022-08-18T21:10:18.533Z,3.22
2022-08-18T21:13:03.963Z,1.80
2022-08-18T21:15:38.084Z,3.55
2022-08-18T21:18:19.053Z,5.57
2022-08-18T21:20:51.371Z,3.40
2022-08-18T21:23:26.906Z,1.30
2022-08-18T21:26:02.956Z,5.88
2022-08-18T21:28:37.797Z,2.03
2022-08-18T21:31:42.574Z,3.13
2022-08-18T21:34:10.175Z,2.53
2022-08-18T21:36:49.157Z,4.70
2022-08-18T21:39:19.741Z,5.20
2022-08-18T21:42:01.534Z,2.35
2022-08-18T21:44:42.490Z,3.83
2022-08-18T21:47:20.119Z,3.72
2022-08-18T21:58:48.225Z,2.88
2022-08-18T22:01:32.024Z,2.03
2022-08-18T22:04:10.418Z,3.47
2022-08-18T22:06:45.448Z,3.70
2022-08-18T22:12:51.923Z,1.90
2022-08-18T22:15:36.900Z,2.95
2022-08-18T22:18:07.643Z,3.15
2022-08-18T22:20:47.845Z,5.05
2022-08-18T22:23:54.039Z,1.83
2022-08-18T22:26:30.146Z,1.65
2022-08-18T22:29:01.971Z,3.55
2022-08-18T22:31:35.265Z,5.28
2022-08-18T22:34:07.297Z,2.08
2022-08-18T22:36:43.382Z,5.60
2022-08-18T22:39:23.754Z,5.20
2022-08-18T22:41:53.047Z,9.15
2022-08-18T22:44:23.988Z,3.33
2022-08-18T22:47:09.165Z,6.25
2022-08-18T22:49:38.996Z,3.25
2022-08-18T22:52:29.905Z,5.45
2022-08-18T22:54:59.143Z,3.70
2022-08-18T22:57:28.979Z,3.70
2022-08-18T22:59:58.223Z,5.57
2022-08-18T23:02:29.733Z,1.45
2022-08-18T23:05:04.434Z,2.30
2022-08-18T23:07:34.304Z,2.65
2022-08-18T23:10:13.971Z,3.13
2022-08-18T23:12:42.948Z,6.32
2022-08-18T23:15:15.341Z,6.45
2022-08-18T23:17:45.292Z,1.88
2022-08-18T23:20:17.433Z,5.47
2022-08-18T23:22:47.551Z,4.28
2022-08-18T23:25:15.938Z,4.55
2022-08-18T23:27:44.015Z,6.47
2022-08-18T23:30:12.567Z,2.35
2022-08-18T23:32:40.598Z,5.43
2022-08-18T23:35:10.533Z,1.60
2022-08-18T23:37:39.668Z,3.15
2022-08-18T23:40:11.312Z,3.28
2022-08-18T23:42:40.054Z,2.67
2022-08-18T23:45:08.859Z,3.92
2022-08-18T23:47:37.057Z,2.97
2022-08-18T23:50:06.344Z,4.03
2022-08-18T23:52:35.601Z,4.00
2022-08-18T23:55:05.741Z,4.03
2022-08-18T23:57:33.655Z,4.10
